Time;durP1;ratioP1;P1;durP2;ratioP2;P2;SDS_P1;SDS_P2;PMS_P1;PMS_P2;Temp;Humidity;BMP_temperature;BMP_pressure;BME280_temperature;BME280_humidity;BME280_pressure;Samples;Min_cycle;Max_cycle;Signal;HPM_P1;HPM_P2
2024/03/16 00:01:11;;;;;;;14.03;8.40;;;5.90;99.90;;;;;;4145432;28;20084;-53
2024/03/16 00:03:13;;;;;;;13.43;8.47;;;5.90;99.90;;;;;;4143886;28;20065;-54
2024/03/16 00:05:14;;;;;;;14.50;7.80;;;5.80;99.90;;;;;;4145138;28;20500;-54
2024/03/16 00:07:15;;;;;;;16.07;8.77;;;5.80;99.90;;;;;;4143868;28;20428;-50
2024/03/16 00:09:16;;;;;;;14.63;8.10;;;5.80;99.90;;;;;;4144479;28;20463;-56
2024/03/16 00:11:18;;;;;;;11.57;6.97;;;5.70;99.90;;;;;;4144590;28;20437;-56
2024/03/16 00:13:19;;;;;;;14.03;8.07;;;5.70;99.90;;;;;;4143688;28;20092;-54
2024/03/16 00:15:20;;;;;;;14.77;8.03;;;5.70;99.90;;;;;;4144636;28;20042;-53
2024/03/16 00:17:22;;;;;;;12.13;7.27;;;5.70;99.90;;;;;;4143748;28;20049;-51
2024/03/16 00:19:24;;;;;;;11.60;7.20;;;5.70;99.90;;;;;;4145203;28;20017;-54
2024/03/16 00:21:26;;;;;;;15.20;7.70;;;5.60;99.90;;;;;;4144200;28;20030;-53
2024/03/16 00:23:28;;;;;;;13.07;7.73;;;5.60;99.90;;;;;;4144881;28;20123;-52
2024/03/16 00:25:29;;;;;;;10.57;6.87;;;5.60;99.90;;;;;;4143819;28;20053;-52
2024/03/16 00:27:32;;;;;;;16.33;7.90;;;5.60;99.90;;;;;;4156537;28;20053;-52
2024/03/16 00:29:33;;;;;;;12.63;7.10;;;5.60;99.90;;;;;;4160248;28;20031;-55
2024/03/16 00:31:35;;;;;;;11.13;7.53;;;5.60;99.90;;;;;;4161303;28;20544;-53
2024/03/16 00:33:36;;;;;;;14.77;7.30;;;5.50;99.90;;;;;;4159227;28;20038;-56
2024/03/16 00:35:37;;;;;;;12.20;6.90;;;5.50;99.90;;;;;;4161059;28;20445;-53
2024/03/16 00:37:40;;;;;;;21.90;8.00;;;5.50;99.90;;;;;;4159626;28;20041;-50
2024/03/16 00:39:41;;;;;;;10.50;7.17;;;5.50;99.90;;;;;;4160793;28;20076;-52
2024/03/16 00:41:43;;;;;;;13.70;7.17;;;5.50;99.90;;;;;;4159361;28;20076;-54
2024/03/16 00:43:44;;;;;;;11.87;6.70;;;5.50;99.90;;;;;;4160207;28;20072;-56
2024/03/16 00:45:45;;;;;;;14.03;7.30;;;5.50;99.90;;;;;;4159930;28;20103;-51
2024/03/16 00:47:47;;;;;;;11.93;7.37;;;5.50;99.90;;;;;;4159999;28;20021;-52
2024/03/16 00:49:48;;;;;;;10.83;6.40;;;5.50;99.90;;;;;;4160352;28;20111;-56
2024/03/16 00:51:50;;;;;;;12.30;7.53;;;5.50;99.90;;;;;;4159940;28;20049;-55
2024/03/16 00:53:51;;;;;;;9.30;6.87;;;5.50;99.90;;;;;;4160847;28;20421;-53
2024/03/16 00:55:52;;;;;;;10.87;6.80;;;5.50;99.90;;;;;;4164618;28;20397;-50
2024/03/16 00:57:53;;;;;;;16.40;6.70;;;5.50;99.90;;;;;;4166335;28;20525;-51
2024/03/16 00:59:55;;;;;;;12.00;6.77;;;5.50;99.90;;;;;;4164904;28;20029;-53
2024/03/16 01:01:56;;;;;;;10.17;6.93;;;5.50;99.90;;;;;;4165454;28;20099;-53
2024/03/16 01:03:58;;;;;;;10.43;7.00;;;5.50;99.90;;;;;;4164147;28;20445;-56
2024/03/16 01:05:59;;;;;;;12.77;7.10;;;5.50;99.90;;;;;;4166247;28;20079;-54
2024/03/16 01:08:00;;;;;;;10.47;6.73;;;5.50;99.90;;;;;;4165138;28;20130;-53
2024/03/16 01:10:02;;;;;;;17.63;7.50;;;5.50;99.90;;;;;;4164883;28;20457;-55
2024/03/16 01:12:03;;;;;;;16.73;6.97;;;5.60;99.90;;;;;;4164669;28;20061;-56
2024/03/16 01:14:05;;;;;;;13.90;7.03;;;5.50;99.90;;;;;;4165236;28;20383;-53
2024/03/16 01:16:06;;;;;;;10.13;6.90;;;5.50;99.90;;;;;;4164503;28;20034;-50
2024/03/16 01:18:07;;;;;;;13.63;7.83;;;5.60;99.90;;;;;;4164817;28;20041;-53
2024/03/16 01:20:09;;;;;;;12.30;7.80;;;5.60;99.90;;;;;;4165706;28;20049;-53
2024/03/16 01:22:10;;;;;;;11.27;6.83;;;5.60;99.90;;;;;;4164831;28;20425;-54
2024/03/16 01:24:11;;;;;;;14.17;6.70;;;5.60;99.90;;;;;;4165263;28;20045;-51
2024/03/16 01:26:13;;;;;;;13.67;7.40;;;5.60;99.90;;;;;;4163664;28;20030;-52
2024/03/16 01:28:15;;;;;;;12.27;7.17;;;5.60;99.90;;;;;;4166324;28;20795;-56
2024/03/16 01:30:16;;;;;;;9.90;6.63;;;5.60;99.90;;;;;;4165104;28;20080;-50
2024/03/16 01:32:17;;;;;;;13.20;7.50;;;5.60;99.90;;;;;;4166256;28;20548;-50
2024/03/16 01:34:18;;;;;;;11.03;6.97;;;5.60;99.90;;;;;;4164827;28;20037;-53
2024/03/16 01:36:20;;;;;;;13.30;6.70;;;5.60;99.90;;;;;;4165870;28;20548;-55
2024/03/16 01:38:21;;;;;;;11.67;6.77;;;5.60;99.90;;;;;;4165221;28;20500;-55
2024/03/16 01:40:25;;;;;;;13.23;6.73;;;5.70;99.90;;;;;;4165686;28;20125;-54
2024/03/16 01:42:27;;;;;;;12.07;7.33;;;5.60;99.90;;;;;;4165391;28;20017;-55
2024/03/16 01:44:29;;;;;;;10.60;6.60;;;5.60;99.90;;;;;;4165607;28;20070;-56
2024/03/16 01:46:32;;;;;;;12.77;7.23;;;5.50;99.90;;;;;;4164820;28;20425;-50
2024/03/16 01:48:33;;;;;;;9.37;6.67;;;5.50;99.90;;;;;;4165535;28;20083;-51
2024/03/16 01:50:34;;;;;;;10.77;6.17;;;5.60;99.90;;;;;;4165786;28;20029;-55
2024/03/16 01:52:36;;;;;;;9.83;5.90;;;5.60;99.90;;;;;;4164689;28;20045;-54
2024/03/16 01:54:37;;;;;;;10.77;5.83;;;5.50;99.90;;;;;;4166103;28;20030;-52
2024/03/16 01:56:39;;;;;;;10.87;5.77;;;5.60;99.90;;;;;;4164755;28;20021;-53
2024/03/16 01:58:45;;;;;;;10.97;6.13;;;5.60;99.90;;;;;;4166424;28;20087;-54
2024/03/16 02:00:47;;;;;;;8.80;5.80;;;5.50;99.90;;;;;;4147665;28;20143;-53
2024/03/16 02:02:48;;;;;;;12.03;6.30;;;5.60;99.90;;;;;;4157759;28;20041;-55
2024/03/16 02:04:49;;;;;;;9.20;5.80;;;5.60;99.90;;;;;;4165030;28;20041;-53
2024/03/16 02:06:51;;;;;;;9.37;5.57;;;5.60;99.90;;;;;;4163083;28;20038;-56
2024/03/16 02:08:52;;;;;;;10.30;6.07;;;5.60;99.90;;;;;;4162276;28;20119;-55
2024/03/16 02:10:53;;;;;;;10.67;5.87;;;5.60;99.90;;;;;;4162433;28;20389;-53
2024/03/16 02:12:55;;;;;;;12.90;6.57;;;5.60;99.90;;;;;;4161519;28;20117;-52
2024/03/16 02:14:56;;;;;;;10.27;6.33;;;5.60;99.90;;;;;;4162332;28;20057;-51
2024/03/16 02:16:57;;;;;;;9.43;6.03;;;5.60;99.90;;;;;;4162591;28;20021;-52
2024/03/16 02:18:59;;;;;;;10.67;6.00;;;5.60;99.90;;;;;;4162500;28;20030;-51
2024/03/16 02:21:03;;;;;;;12.47;5.97;;;5.60;99.90;;;;;;4162007;28;20476;-54
2024/03/16 02:23:04;;;;;;;11.93;5.93;;;5.70;99.90;;;;;;4161516;28;20043;-55
2024/03/16 02:25:07;;;;;;;7.53;5.67;;;5.70;99.90;;;;;;4162234;28;20084;-52
2024/03/16 02:27:08;;;;;;;12.33;7.47;;;5.70;99.90;;;;;;4161890;28;20505;-54
2024/03/16 02:29:09;;;;;;;9.87;7.17;;;5.70;99.90;;;;;;4163658;28;20672;-54
2024/03/16 02:31:10;;;;;;;10.27;6.50;;;5.70;99.90;;;;;;4161421;28;20087;-53
2024/03/16 02:33:12;;;;;;;12.17;6.53;;;5.70;99.90;;;;;;4162122;28;20041;-51
2024/03/16 02:35:13;;;;;;;8.70;5.37;;;5.70;99.90;;;;;;4161368;28;20091;-52
2024/03/16 02:37:14;;;;;;;11.07;5.50;;;5.70;99.90;;;;;;4162631;28;20067;-52
2024/03/16 02:39:16;;;;;;;10.10;5.73;;;5.70;99.90;;;;;;4161924;28;20033;-53
2024/03/16 02:41:18;;;;;;;7.00;4.80;;;5.70;99.90;;;;;;4162891;28;20038;-53
2024/03/16 02:43:19;;;;;;;9.00;5.90;;;5.80;99.90;;;;;;4161536;28;20059;-55
2024/03/16 02:45:20;;;;;;;12.93;7.27;;;5.80;99.90;;;;;;4162073;28;20068;-51
2024/03/16 02:47:21;;;;;;;12.70;6.33;;;5.80;99.90;;;;;;4162237;28;20088;-54
2024/03/16 02:49:23;;;;;;;10.73;6.40;;;5.70;99.90;;;;;;4162368;28;20041;-53
2024/03/16 02:51:24;;;;;;;9.10;5.83;;;5.70;99.90;;;;;;4161843;28;20064;-52
2024/03/16 02:53:26;;;;;;;11.43;6.27;;;5.70;99.90;;;;;;4161099;28;20057;-50
2024/03/16 02:55:27;;;;;;;11.30;7.13;;;5.70;99.90;;;;;;4162274;28;20029;-53
2024/03/16 02:57:28;;;;;;;10.93;6.27;;;5.70;99.90;;;;;;4161747;28;20102;-54
2024/03/16 02:59:30;;;;;;;9.33;6.13;;;5.70;99.90;;;;;;4162790;28;20104;-55
2024/03/16 03:01:31;;;;;;;9.43;5.93;;;5.70;99.90;;;;;;4160865;28;20087;-53
2024/03/16 03:03:32;;;;;;;9.97;6.47;;;5.70;99.90;;;;;;4161664;28;20083;-56
2024/03/16 03:05:33;;;;;;;10.10;6.17;;;5.70;99.90;;;;;;4161343;28;20069;-56
2024/03/16 03:07:35;;;;;;;11.00;6.23;;;5.70;99.90;;;;;;4162605;28;20107;-55
2024/03/16 03:09:37;;;;;;;11.07;5.80;;;5.70;99.90;;;;;;4161297;28;20069;-53
2024/03/16 03:11:38;;;;;;;13.70;8.17;;;5.70;99.90;;;;;;4161452;28;20049;-48
2024/03/16 03:13:39;;;;;;;14.47;8.63;;;5.60;99.90;;;;;;4160590;28;20076;-49
2024/03/16 03:15:41;;;;;;;15.77;9.10;;;5.50;99.90;;;;;;4161830;28;20107;-55
2024/03/16 03:17:42;;;;;;;17.70;9.90;;;5.50;99.90;;;;;;4160570;28;20417;-54
2024/03/16 03:19:44;;;;;;;18.57;10.13;;;5.40;99.90;;;;;;4161788;28;20021;-56
2024/03/16 03:21:46;;;;;;;16.13;9.33;;;5.50;99.90;;;;;;4160549;28;20034;-55
2024/03/16 03:23:47;;;;;;;15.27;9.40;;;5.40;99.90;;;;;;4160559;28;20088;-48
2024/03/16 03:25:48;;;;;;;15.63;8.97;;;5.50;99.90;;;;;;4161498;28;20087;-52
2024/03/16 03:27:49;;;;;;;16.37;10.57;;;5.50;99.90;;;;;;4160551;28;20053;-52
2024/03/16 03:29:51;;;;;;;17.93;9.63;;;5.50;99.90;;;;;;4161283;28;20087;-54
2024/03/16 03:31:53;;;;;;;12.77;7.57;;;5.50;99.90;;;;;;4160700;28;20055;-55
2024/03/16 03:33:55;;;;;;;16.87;8.00;;;5.50;99.90;;;;;;4161205;28;20091;-49
2024/03/16 03:35:56;;;;;;;13.20;6.70;;;5.50;99.90;;;;;;4160492;28;20045;-50
2024/03/16 03:37:57;;;;;;;14.43;6.07;;;5.50;99.90;;;;;;4161601;28;20038;-54
2024/03/16 03:39:59;;;;;;;11.37;5.93;;;5.50;99.90;;;;;;4160482;28;20099;-53
2024/03/16 03:42:00;;;;;;;10.03;5.57;;;5.50;99.90;;;;;;4161401;28;20041;-54
2024/03/16 03:44:09;;;;;;;9.00;5.60;;;5.50;99.90;;;;;;4160948;28;20029;-54
2024/03/16 03:46:18;;;;;;;7.47;5.07;;;5.50;99.90;;;;;;4160765;28;20061;-51
2024/03/16 03:50:28;;;;;;;7.67;5.20;;;5.50;99.90;;;;;;4161661;28;20029;-52
2024/03/16 03:52:30;;;;;;;8.77;5.17;;;5.50;99.90;;;;;;4160516;28;20485;-55
2024/03/16 03:54:31;;;;;;;7.93;5.10;;;5.50;99.90;;;;;;4160560;28;20448;-53
2024/03/16 03:56:36;;;;;;;9.97;5.53;;;5.50;99.90;;;;;;4160872;28;20021;-53
2024/03/16 03:58:37;;;;;;;8.77;5.17;;;5.50;99.90;;;;;;4160611;28;20049;-53
2024/03/16 04:00:38;;;;;;;10.90;4.63;;;5.50;99.90;;;;;;4160500;28;20077;-56
2024/03/16 04:02:40;;;;;;;10.07;5.30;;;5.40;99.90;;;;;;4159545;28;20493;-56
2024/03/16 04:04:42;;;;;;;10.53;5.80;;;5.40;99.90;;;;;;4160811;28;20049;-53
2024/03/16 04:06:45;;;;;;;7.13;4.60;;;5.40;99.90;;;;;;4159447;28;20470;-55
2024/03/16 04:08:46;;;;;;;9.00;5.10;;;5.40;99.90;;;;;;4161699;28;20079;-56
2024/03/16 04:10:47;;;;;;;6.97;4.80;;;5.40;99.90;;;;;;4160385;28;20017;-56
2024/03/16 04:12:49;;;;;;;7.80;4.47;;;5.40;99.90;;;;;;4161281;28;20120;-51
2024/03/16 04:14:50;;;;;;;8.33;4.97;;;5.30;99.90;;;;;;4159655;28;20632;-50
2024/03/16 04:16:51;;;;;;;7.43;4.40;;;5.30;99.90;;;;;;4160791;28;20049;-53
2024/03/16 04:18:52;;;;;;;8.93;4.80;;;5.20;99.90;;;;;;4160294;28;20041;-53
2024/03/16 04:20:54;;;;;;;7.77;5.40;;;5.10;99.90;;;;;;4160580;28;20478;-57
2024/03/16 04:22:55;;;;;;;6.67;4.30;;;5.20;99.90;;;;;;4160011;28;20084;-53
2024/03/16 04:24:56;;;;;;;11.03;5.20;;;5.10;99.90;;;;;;4160532;28;20037;-54
2024/03/16 04:26:58;;;;;;;12.57;6.43;;;5.00;99.90;;;;;;4160578;28;20053;-56
2024/03/16 04:28:59;;;;;;;21.67;7.00;;;5.00;99.90;;;;;;4159808;28;20041;-55
2024/03/16 04:31:00;;;;;;;11.63;6.87;;;5.00;99.90;;;;;;4160555;28;20043;-57
2024/03/16 04:33:01;;;;;;;14.47;7.17;;;5.00;99.90;;;;;;4159728;28;20104;-55
2024/03/16 04:35:07;;;;;;;11.63;7.30;;;4.90;99.90;;;;;;4160306;28;20029;-51
2024/03/16 04:37:08;;;;;;;15.67;7.53;;;4.90;99.90;;;;;;4159714;28;20084;-52
2024/03/16 04:39:10;;;;;;;14.40;7.30;;;4.90;99.90;;;;;;4161154;28;20091;-52
2024/03/16 04:41:13;;;;;;;17.87;8.27;;;4.80;99.90;;;;;;4159470;28;20033;-55
2024/03/16 04:43:15;;;;;;;15.77;8.63;;;4.80;99.90;;;;;;4160958;28;20115;-57
2024/03/16 04:45:16;;;;;;;13.43;7.80;;;4.80;99.90;;;;;;4159202;28;20107;-55
2024/03/16 04:47:18;;;;;;;17.50;8.57;;;4.70;99.90;;;;;;4159655;28;20108;-52
2024/03/16 04:49:19;;;;;;;15.70;7.93;;;4.70;99.90;;;;;;4159392;28;20122;-55
2024/03/16 04:51:20;;;;;;;15.63;8.27;;;4.60;99.90;;;;;;4160406;28;20049;-54
2024/03/16 04:53:21;;;;;;;11.70;7.33;;;4.60;99.90;;;;;;4158581;28;20110;-50
2024/03/16 04:55:23;;;;;;;10.27;6.73;;;4.60;99.90;;;;;;4160134;28;20049;-53
2024/03/16 04:57:24;;;;;;;17.17;8.13;;;4.50;99.90;;;;;;4159827;28;20022;-53
2024/03/16 04:59:25;;;;;;;15.07;8.17;;;4.50;99.90;;;;;;4160114;28;20087;-53
2024/03/16 05:01:27;;;;;;;10.73;6.77;;;4.50;99.90;;;;;;4159380;28;20455;-53
2024/03/16 05:03:28;;;;;;;12.93;6.47;;;4.50;99.90;;;;;;4159745;28;20034;-56
2024/03/16 05:05:29;;;;;;;12.50;7.03;;;4.50;99.90;;;;;;4159440;28;20512;-53
2024/03/16 05:07:31;;;;;;;12.57;7.03;;;4.60;99.90;;;;;;4159583;28;20485;-56
2024/03/16 05:09:34;;;;;;;12.70;7.50;;;4.60;99.90;;;;;;4160794;28;20033;-55
2024/03/16 05:11:36;;;;;;;15.30;8.70;;;4.60;99.90;;;;;;4159034;28;20313;-56
2024/03/16 05:13:38;;;;;;;13.67;8.63;;;4.60;99.90;;;;;;4160160;28;20127;-54
2024/03/16 05:15:39;;;;;;;13.43;8.20;;;4.80;99.90;;;;;;4159691;28;20038;-55
2024/03/16 05:17:40;;;;;;;18.97;9.17;;;5.10;99.90;;;;;;4160048;28;20038;-49
2024/03/16 05:19:42;;;;;;;24.87;9.43;;;5.30;99.90;;;;;;4159070;28;20033;-56
2024/03/16 05:21:43;;;;;;;20.90;9.40;;;5.60;99.90;;;;;;4160652;28;20037;-50
2024/03/16 05:23:45;;;;;;;16.87;9.13;;;5.90;99.90;;;;;;4159653;28;20037;-53
2024/03/16 05:25:46;;;;;;;15.20;8.80;;;6.10;99.90;;;;;;4159976;28;20514;-57
2024/03/16 05:27:48;;;;;;;15.90;8.77;;;6.10;99.90;;;;;;4159833;28;20434;-50
2024/03/16 05:29:51;;;;;;;18.67;10.20;;;6.10;99.90;;;;;;4159717;28;20390;-56
2024/03/16 05:32:00;;;;;;;17.00;9.90;;;6.30;99.90;;;;;;4142087;28;20096;-56
2024/03/16 05:34:01;;;;;;;18.03;9.50;;;6.60;99.90;;;;;;4159235;28;20089;-53
2024/03/16 05:36:05;;;;;;;14.83;8.23;;;7.00;99.90;;;;;;4159149;28;20478;-54
2024/03/16 05:38:06;;;;;;;14.63;9.57;;;7.30;99.90;;;;;;4159081;28;20037;-54
2024/03/16 05:40:10;;;;;;;17.37;8.97;;;7.60;99.90;;;;;;4159132;28;20033;-53
2024/03/16 05:42:11;;;;;;;13.40;7.90;;;7.80;99.90;;;;;;4162428;28;20543;-57
2024/03/16 05:44:13;;;;;;;15.97;8.90;;;8.30;99.90;;;;;;4163272;28;20033;-54
2024/03/16 05:46:14;;;;;;;14.20;7.47;;;8.60;99.90;;;;;;4161762;28;20103;-56
2024/03/16 05:48:15;;;;;;;14.00;7.73;;;9.00;99.90;;;;;;4162164;28;20096;-54
2024/03/16 05:50:17;;;;;;;13.17;6.93;;;9.40;99.90;;;;;;4160259;28;20429;-50
2024/03/16 05:52:18;;;;;;;12.53;6.07;;;9.90;99.90;;;;;;4163362;28;20037;-53
2024/03/16 05:54:19;;;;;;;8.50;5.00;;;10.20;99.90;;;;;;4161690;28;20045;-50
2024/03/16 05:56:21;;;;;;;11.33;4.67;;;10.70;99.90;;;;;;4144859;28;20053;-54
2024/03/16 05:58:23;;;;;;;7.13;4.90;;;11.00;99.90;;;;;;4159319;28;20063;-52
2024/03/16 06:00:24;;;;;;;43.30;17.63;;;11.50;99.90;;;;;;4155075;28;20034;-56
2024/03/16 06:02:26;;;;;;;90.47;33.47;;;12.00;99.90;;;;;;4160685;28;20041;-50
2024/03/16 06:04:27;;;;;;;8.47;5.10;;;12.30;99.90;;;;;;4162968;28;20018;-54
2024/03/16 06:06:28;;;;;;;70.97;27.63;;;12.70;99.90;;;;;;4161540;28;20461;-56
2024/03/16 06:08:31;;;;;;;31.20;12.47;;;12.90;99.90;;;;;;4161897;28;20049;-57
2024/03/16 06:10:32;;;;;;;11.10;6.30;;;13.30;99.90;;;;;;4162686;28;20071;-54
2024/03/16 06:12:34;;;;;;;63.77;25.03;;;13.70;99.90;;;;;;4161555;28;20092;-57
2024/03/16 06:14:35;;;;;;;18.17;9.63;;;13.90;99.90;;;;;;4161844;28;20057;-55
2024/03/16 06:16:40;;;;;;;26.33;11.20;;;14.20;99.90;;;;;;4162168;28;20072;-55
2024/03/16 06:18:46;;;;;;;26.70;10.50;;;14.40;99.90;;;;;;4162140;28;20053;-55
2024/03/16 06:20:48;;;;;;;11.67;5.70;;;14.60;99.90;;;;;;4161129;28;20041;-52
2024/03/16 06:22:50;;;;;;;4.83;4.07;;;14.70;99.90;;;;;;4163259;28;20030;-55
2024/03/16 06:24:52;;;;;;;4.93;3.63;;;14.90;99.90;;;;;;4161356;28;20033;-57
2024/03/16 06:27:00;;;;;;;5.35;3.92;;;15.10;99.90;;;;;;4161759;28;20144;-52
2024/03/16 06:29:05;;;;;;;5.28;3.70;;;15.40;99.90;;;;;;4161538;28;20068;-56
2024/03/16 06:31:11;;;;;;;4.88;3.63;;;15.80;99.80;;;;;;4162198;28;20079;-51
2024/03/16 06:33:21;;;;;;;4.65;3.47;;;15.90;99.10;;;;;;4161201;28;20041;-55
2024/03/16 06:35:22;;;;;;;4.38;3.78;;;16.20;98.10;;;;;;4162255;28;20107;-54
2024/03/16 06:37:23;;;;;;;4.95;3.35;;;16.30;97.50;;;;;;4162227;28;20482;-54
2024/03/16 06:39:25;;;;;;;5.53;3.60;;;16.50;97.20;;;;;;4162533;28;20029;-56
2024/03/16 06:41:27;;;;;;;6.35;4.22;;;16.50;96.90;;;;;;4160907;28;20069;-53
2024/03/16 06:43:28;;;;;;;6.72;3.80;;;16.40;96.90;;;;;;4161197;28;20208;-56
2024/03/16 06:45:29;;;;;;;11.38;5.82;;;16.30;96.50;;;;;;4161445;28;20560;-59
2024/03/16 06:47:30;;;;;;;5.75;3.95;;;16.30;96.30;;;;;;4144059;28;20038;-55
2024/03/16 06:49:32;;;;;;;7.03;3.85;;;16.10;95.70;;;;;;4161020;28;20508;-57
2024/03/16 06:51:34;;;;;;;4.90;3.72;;;16.10;96.10;;;;;;4160412;28;20122;-58
2024/03/16 06:53:35;;;;;;;10.38;4.30;;;16.00;95.70;;;;;;4160840;28;20053;-59
2024/03/16 06:55:37;;;;;;;7.30;4.18;;;16.20;95.90;;;;;;4160286;28;20034;-57
2024/03/16 06:57:38;;;;;;;8.23;4.60;;;16.60;95.60;;;;;;4162695;28;20026;-58
2024/03/16 06:59:39;;;;;;;6.93;4.63;;;16.90;95.00;;;;;;4160849;28;20414;-58
2024/03/16 07:01:41;;;;;;;7.22;4.78;;;17.10;94.70;;;;;;4162163;28;20044;-58
2024/03/16 07:03:42;;;;;;;7.82;4.70;;;16.80;94.10;;;;;;4160909;28;20174;-58
2024/03/16 07:05:43;;;;;;;6.65;4.55;;;16.40;94.80;;;;;;4161491;28;20111;-56
2024/03/16 07:07:44;;;;;;;5.03;3.88;;;16.10;94.80;;;;;;4159942;28;20037;-56
2024/03/16 07:09:46;;;;;;;8.73;4.78;;;16.40;95.10;;;;;;4160463;28;20086;-58
2024/03/16 07:11:47;;;;;;;5.50;4.22;;;17.00;94.50;;;;;;4160335;28;20079;-57
2024/03/16 07:13:48;;;;;;;9.57;5.50;;;16.60;94.40;;;;;;4161361;28;20038;-60
2024/03/16 07:15:50;;;;;;;7.53;5.35;;;16.60;94.50;;;;;;4159229;28;20115;-57
2024/03/16 07:17:51;;;;;;;6.88;5.15;;;16.60;94.60;;;;;;4159249;28;20693;-59
2024/03/16 07:19:54;;;;;;;7.32;5.75;;;16.70;94.60;;;;;;4158705;28;20041;-55
2024/03/16 07:21:55;;;;;;;8.05;5.65;;;17.00;94.40;;;;;;4159004;28;20037;-59
2024/03/16 07:23:57;;;;;;;10.15;6.38;;;17.30;93.90;;;;;;4159595;28;20029;-56
2024/03/16 07:25:58;;;;;;;6.20;5.60;;;16.80;94.00;;;;;;4158809;28;20099;-55
2024/03/16 07:27:59;;;;;;;10.65;6.43;;;16.60;94.50;;;;;;4159572;28;20041;-58
2024/03/16 07:30:01;;;;;;;10.32;6.28;;;16.30;94.60;;;;;;4159708;28;20029;-58
2024/03/16 07:32:02;;;;;;;7.82;5.93;;;15.90;94.60;;;;;;4161709;28;20396;-56
2024/03/16 07:34:03;;;;;;;10.00;6.15;;;15.40;95.10;;;;;;4160610;28;20530;-56
2024/03/16 07:36:05;;;;;;;10.77;6.53;;;15.40;95.50;;;;;;4161452;28;20452;-57
2024/03/16 07:38:06;;;;;;;11.35;7.72;;;15.30;95.30;;;;;;4160596;28;20091;-58
2024/03/16 07:40:13;;;;;;;12.85;7.20;;;15.00;95.40;;;;;;4161017;28;20046;-58
2024/03/16 07:42:14;;;;;;;9.80;6.93;;;14.10;95.70;;;;;;4160936;28;20080;-58
2024/03/16 07:44:15;;;;;;;10.73;6.78;;;13.50;96.50;;;;;;4160695;28;20095;-59
2024/03/16 07:46:19;;;;;;;12.07;7.05;;;13.10;97.10;;;;;;4159363;28;20037;-55
2024/03/16 07:48:22;;;;;;;11.27;7.95;;;12.90;97.70;;;;;;4161124;28;20506;-56
2024/03/16 07:50:23;;;;;;;9.52;6.32;;;13.10;97.60;;;;;;4160698;28;20466;-57
2024/03/16 07:52:24;;;;;;;14.40;7.00;;;13.10;97.50;;;;;;4160417;28;20034;-58
2024/03/16 07:54:26;;;;;;;11.68;7.13;;;12.90;97.50;;;;;;4160523;28;20180;-60
2024/03/16 07:56:27;;;;;;;11.40;6.70;;;13.40;97.60;;;;;;4144037;28;20556;-60
2024/03/16 07:58:28;;;;;;;10.10;6.97;;;13.30;97.30;;;;;;4153791;28;20103;-58
2024/03/16 08:00:30;;;;;;;12.38;7.47;;;12.80;97.70;;;;;;4159370;28;20568;-62
2024/03/16 08:02:31;;;;;;;8.87;6.67;;;12.60;98.10;;;;;;4160773;28;20045;-58
2024/03/16 08:04:34;;;;;;;12.63;7.93;;;12.50;98.20;;;;;;4160670;28;20063;-57
2024/03/16 08:06:36;;;;;;;9.33;6.97;;;12.50;98.40;;;;;;4161127;28;20045;-60
2024/03/16 08:08:37;;;;;;;11.43;7.37;;;12.70;98.50;;;;;;4160006;28;20041;-58
2024/03/16 08:10:38;;;;;;;11.87;7.40;;;12.90;98.40;;;;;;4161085;28;20175;-56
2024/03/16 08:12:40;;;;;;;14.77;7.93;;;12.70;98.70;;;;;;4159352;28;20457;-58
2024/03/16 08:14:41;;;;;;;14.27;8.53;;;12.50;99.00;;;;;;4160671;28;20045;-57
2024/03/16 08:16:42;;;;;;;13.97;8.20;;;12.30;99.20;;;;;;4159684;28;20141;-58
2024/03/16 08:18:45;;;;;;;13.33;8.63;;;12.50;99.40;;;;;;4161244;28;20041;-64
2024/03/16 08:20:47;;;;;;;14.03;8.97;;;12.40;99.40;;;;;;4159260;28;20037;-61
2024/03/16 08:22:53;;;;;;;14.93;7.90;;;12.50;99.50;;;;;;4160815;28;20083;-58
2024/03/16 08:24:54;;;;;;;13.33;8.07;;;12.40;99.70;;;;;;4159403;28;20468;-60
2024/03/16 08:26:56;;;;;;;12.33;8.40;;;12.40;99.80;;;;;;4160510;28;20096;-58
2024/03/16 08:28:57;;;;;;;14.83;8.47;;;12.30;99.90;;;;;;4159771;28;20045;-61
2024/03/16 08:30:58;;;;;;;11.83;8.00;;;12.70;99.90;;;;;;4159265;28;20402;-58
2024/03/16 08:32:59;;;;;;;12.27;8.27;;;12.90;99.80;;;;;;4160014;28;20575;-58
2024/03/16 08:35:03;;;;;;;12.27;7.50;;;12.70;99.80;;;;;;4159024;28;20102;-58
2024/03/16 08:37:04;;;;;;;11.57;7.47;;;12.70;99.90;;;;;;4160743;28;20034;-59
2024/03/16 08:39:07;;;;;;;10.37;7.47;;;12.80;99.90;;;;;;4157897;28;20049;-57
2024/03/16 08:41:08;;;;;;;12.10;8.07;;;13.00;99.90;;;;;;4160023;28;20064;-57
2024/03/16 08:43:09;;;;;;;8.87;6.87;;;13.40;99.90;;;;;;4159401;28;20041;-55
2024/03/16 08:45:11;;;;;;;13.37;9.30;;;13.20;99.60;;;;;;4160184;28;20506;-56
2024/03/16 08:47:12;;;;;;;9.80;6.87;;;13.10;99.90;;;;;;4159136;28;20037;-58
2024/03/16 08:49:13;;;;;;;12.37;8.37;;;13.00;99.90;;;;;;4159859;28;20393;-57
2024/03/16 08:51:15;;;;;;;10.37;7.00;;;12.90;99.90;;;;;;4159750;28;20025;-57
2024/03/16 08:53:16;;;;;;;10.50;7.23;;;12.90;99.90;;;;;;4160167;28;20151;-53
2024/03/16 08:55:18;;;;;;;9.93;7.40;;;12.80;99.90;;;;;;4159717;28;20091;-58
2024/03/16 08:57:19;;;;;;;12.10;8.17;;;12.90;99.90;;;;;;4159429;28;20063;-56
2024/03/16 08:59:20;;;;;;;12.63;8.87;;;13.20;99.90;;;;;;4160004;28;20033;-58
2024/03/16 09:01:21;;;;;;;14.67;7.90;;;13.20;99.90;;;;;;4160160;28;20017;-57
2024/03/16 09:03:23;;;;;;;13.00;7.90;;;13.30;99.90;;;;;;4159179;28;20033;-55
2024/03/16 09:05:25;;;;;;;10.23;7.30;;;13.40;99.90;;;;;;4159560;28;20063;-56
2024/03/16 09:07:28;;;;;;;11.10;7.30;;;13.50;99.90;;;;;;4160261;28;20037;-58
2024/03/16 09:09:29;;;;;;;11.37;6.87;;;13.50;99.90;;;;;;4157919;28;20099;-55
2024/03/16 09:11:31;;;;;;;11.87;7.50;;;13.60;99.90;;;;;;4146356;28;20073;-56
2024/03/16 09:13:33;;;;;;;12.43;7.67;;;13.40;99.90;;;;;;4158266;28;20122;-57
2024/03/16 09:15:34;;;;;;;11.60;7.23;;;13.10;99.90;;;;;;4159537;28;20049;-57
2024/03/16 09:17:36;;;;;;;11.43;7.50;;;13.20;99.90;;;;;;4162831;28;20447;-52
2024/03/16 09:19:37;;;;;;;15.03;8.23;;;13.20;99.90;;;;;;4164113;28;20551;-56
2024/03/16 09:21:38;;;;;;;11.80;8.37;;;13.20;99.90;;;;;;4162917;28;20428;-58
2024/03/16 09:23:39;;;;;;;12.13;8.40;;;13.50;99.90;;;;;;4163097;28;20041;-57
2024/03/16 09:25:41;;;;;;;14.50;8.23;;;13.50;99.90;;;;;;4162606;28;20038;-56
2024/03/16 09:27:42;;;;;;;11.40;7.73;;;13.50;99.90;;;;;;4163372;28;20057;-57
2024/03/16 09:29:43;;;;;;;10.27;7.40;;;13.70;99.90;;;;;;4163535;28;20037;-56
2024/03/16 09:31:45;;;;;;;11.67;7.27;;;14.00;99.90;;;;;;4163579;28;20080;-56
2024/03/16 09:33:47;;;;;;;9.67;7.10;;;14.10;99.90;;;;;;4163133;28;20033;-57
2024/03/16 09:35:51;;;;;;;9.00;6.83;;;14.00;99.90;;;;;;4162296;28;20083;-56
2024/03/16 09:37:53;;;;;;;9.60;6.27;;;14.10;99.90;;;;;;4163235;28;20099;-57
2024/03/16 09:39:54;;;;;;;11.90;7.07;;;14.10;99.90;;;;;;4161759;28;20053;-57
2024/03/16 09:41:57;;;;;;;9.10;6.47;;;13.90;99.90;;;;;;4163835;28;20462;-55
2024/03/16 09:43:58;;;;;;;8.03;5.30;;;13.70;99.90;;;;;;4161195;28;20065;-57
2024/03/16 09:46:00;;;;;;;8.77;6.43;;;13.70;99.90;;;;;;4163039;28;20049;-53
2024/03/16 09:48:03;;;;;;;13.30;7.60;;;13.90;99.90;;;;;;4161563;28;20446;-57
2024/03/16 09:50:08;;;;;;;9.97;6.87;;;13.90;99.90;;;;;;4162855;28;20441;-57
2024/03/16 09:52:16;;;;;;;10.40;5.60;;;13.80;99.90;;;;;;4161157;28;20037;-55
2024/03/16 09:54:17;;;;;;;8.33;6.00;;;13.50;99.90;;;;;;4158975;28;20099;-55
2024/03/16 09:56:19;;;;;;;8.50;5.60;;;13.40;99.90;;;;;;4161613;28;20049;-57
2024/03/16 09:58:21;;;;;;;9.87;6.20;;;13.40;99.90;;;;;;4163810;28;20072;-51
2024/03/16 10:00:22;;;;;;;9.33;5.97;;;13.30;99.90;;;;;;4162000;28;20041;-52
2024/03/16 10:02:24;;;;;;;8.83;5.70;;;13.30;99.90;;;;;;4163008;28;20371;-56
2024/03/16 10:04:26;;;;;;;12.00;6.27;;;13.20;99.90;;;;;;4162820;28;20466;-56
2024/03/16 10:06:28;;;;;;;7.37;5.40;;;13.20;99.90;;;;;;4161831;28;20103;-58
2024/03/16 10:08:29;;;;;;;6.67;5.20;;;13.30;99.90;;;;;;4162188;28;20080;-54
2024/03/16 10:10:30;;;;;;;7.30;5.40;;;13.30;99.90;;;;;;4161239;28;20053;-56
2024/03/16 10:12:31;;;;;;;9.47;5.60;;;13.40;99.90;;;;;;4162310;28;20037;-56
2024/03/16 10:14:33;;;;;;;6.57;4.33;;;13.50;99.90;;;;;;4161942;28;20436;-52
2024/03/16 10:16:34;;;;;;;6.30;5.10;;;13.50;99.60;;;;;;4161984;28;20103;-55
2024/03/16 10:18:36;;;;;;;8.53;4.67;;;13.50;99.50;;;;;;4161473;28;20045;-59
2024/03/16 10:20:37;;;;;;;5.67;4.10;;;13.40;99.20;;;;;;4162745;28;20486;-60
2024/03/16 10:22:39;;;;;;;8.03;5.43;;;13.30;98.90;;;;;;4160727;28;20033;-59
2024/03/16 10:24:40;;;;;;;8.20;5.17;;;13.20;99.40;;;;;;4162503;28;20037;-56
2024/03/16 10:26:41;;;;;;;8.00;5.20;;;13.10;99.80;;;;;;4161349;28;20045;-57
2024/03/16 10:28:43;;;;;;;6.53;4.93;;;13.00;99.90;;;;;;4161856;28;20091;-52
2024/03/16 10:30:47;;;;;;;7.97;4.97;;;13.00;99.90;;;;;;4161667;28;20375;-55
2024/03/16 10:32:53;;;;;;;8.47;4.90;;;13.00;99.90;;;;;;4163155;28;20055;-55
2024/03/16 10:34:58;;;;;;;8.17;4.10;;;13.00;99.90;;;;;;4161937;28;20064;-55